BBC Florida — V2EK3 — position and weather

sailwx.info

Track history (hours):
 
Tides and Currents Weather Stations Pressure Air Temp Water Temp Dewpoint Dewpoint Depression Visibility Wind Speed Wind Dir Waves Ship Positions

BBC Florida

Last reported at 2018-Jun-07 22:30 UTC. Time now 2018-Jun-21 11:51 UTC.
Position N 38°14' W 032°41'.
Warning: this ship's position is 13 days out of date.

Length 138 m; draft 7.7 m.

Type: Cargo ship. MMSI: 305458000.

Date/timePositionNaut miles runAvg speedWind from/ knotsBaromVisibWave heightAir tempDewpointWater temp
2018-Jun-07 22:30N 38°14' W 032°41'1013.4
2018-Jun-07 21:47N 38°17' W 032°29'1013.6
2018-Jun-07 21:05N 38°19' W 032°17'113.4
2018-Jun-07 20:59N 38°20' W 032°16'1813.2
2018-Jun-07 19:36N 38°26' W 031°54'913.1
2018-Jun-07 18:53N 38°29' W 031°42'512.6
2018-Jun-07 18:29N 38°30' W 031°36'712.9
2018-Jun-07 17:59N 38°32' W 031°28'912.8
2018-Jun-07 17:18N 38°35' W 031°18'612.6
2018-Jun-07 16:51N 38°37' W 031°11'412.7
2018-Jun-07 16:30N 38°38' W 031°06'1913.2
2018-Jun-07 15:06N 38°44' W 030°43'813.5
2018-Jun-07 14:29N 38°47' W 030°33'713.5
2018-Jun-07 13:59N 38°49' W 030°25'713.6
2018-Jun-07 13:29N 38°51' W 030°16'613.3
2018-Jun-07 13:00N 38°52' W 030°08'713.5
2018-Jun-07 12:30N 38°54' W 029°60'713.1
2018-Jun-07 12:00N 38°56' W 029°52'713.2
2018-Jun-07 11:30N 38°57' W 029°44'713.1
2018-Jun-07 11:00N 38°59' W 029°35'713.1
2018-Jun-07 10:30N 39°00' W 029°27'612.8
2018-Jun-07 10:00N 39°02' W 029°19'612.7
2018-Jun-07 09:30N 39°04' W 029°11'612.4
2018-Jun-07 09:00N 39°06' W 029°04'612.1
2018-Jun-07 08:30N 39°07' W 028°56'612.3
2018-Jun-07 08:00N 39°09' W 028°49'612.1
2018-Jun-07 07:30N 39°10' W 028°41'612.2
2018-Jun-07 07:00N 39°12' W 028°33'612.2
2018-Jun-07 06:30N 39°14' W 028°26'612.0
2018-Jun-07 06:00N 39°15' W 028°18'611.9
2018-Jun-07 05:30N 39°17' W 028°11'611.8
2018-Jun-07 05:00N 39°19' W 028°04'611.9
2018-Jun-07 04:30N 39°21' W 027°57'611.7
2018-Jun-07 04:00N 39°24' W 027°50'611.9
2018-Jun-07 03:31N 39°26' W 027°43'611.9
2018-Jun-07 02:58N 39°27' W 027°35'  
2018-Jun-03 19:56N 43°46' W 006°02'613.3
2018-Jun-03 19:28N 43°44' W 005°54'613.5
2018-Jun-03 19:00N 43°41' W 005°46'612.9
2018-Jun-03 18:30N 43°36' W 005°40'3 6.2
2018-Jun-03 18:01N 43°33' W 005°41'0 0.0
2018-Jun-03 17:28N 43°33' W 005°41'0 0.0
2018-Jun-03 13:04N 43°33' W 005°41'0 0.0
2018-Jun-03 12:46N 43°33' W 005°41'0 0.0
2018-Jun-03 12:28N 43°33' W 005°41'0 0.0
2018-Jun-03 11:58N 43°33' W 005°41'0 0.0
2018-Jun-03 11:10N 43°33' W 005°41'0 0.0
2018-Jun-03 10:46N 43°33' W 005°41'0 0.0
2018-Jun-03 10:28N 43°33' W 005°41'0 0.0
2018-Jun-03 09:58N 43°33' W 005°41'0 0.0
2018-Jun-03 09:22N 43°33' W 005°41'0 0.0
2018-Jun-03 08:40N 43°33' W 005°41'0 0.0
2018-Jun-03 08:22N 43°33' W 005°41'0 0.0
2018-Jun-03 07:46N 43°33' W 005°41'0 0.0
2018-Jun-03 07:10N 43°33' W 005°41'0 0.0
2018-Jun-03 06:52N 43°33' W 005°41'0 0.0
2018-Jun-03 06:28N 43°33' W 005°41'0 0.0
2018-Jun-03 05:52N 43°33' W 005°41'0 0.0
2018-Jun-03 05:28N 43°33' W 005°41'0 0.0
2018-Jun-03 04:40N 43°33' W 005°41'0 0.0
2018-Jun-03 04:28N 43°33' W 005°41'0 0.0
2018-Jun-03 03:58N 43°33' W 005°41'0 0.0
2018-Jun-03 03:22N 43°33' W 005°41'0 0.0
2018-Jun-03 02:52N 43°33' W 005°41'0 0.0
2018-Jun-03 02:22N 43°33' W 005°41'0 0.0
2018-Jun-03 01:58N 43°33' W 005°41'0 0.0
2018-Jun-03 01:22N 43°33' W 005°41'0 0.0
2018-Jun-03 00:58N 43°33' W 005°41'0 0.0
2018-Jun-02 20:10N 43°33' W 005°41'0 0.0
2018-Jun-02 19:46N 43°33' W 005°41'0 0.0
2018-Jun-02 19:28N 43°33' W 005°41'0 0.0
2018-Jun-02 18:58N 43°33' W 005°41'0 0.0
2018-Jun-02 17:40N 43°33' W 005°41'0 0.0
2018-Jun-02 15:10N 43°33' W 005°41'0 0.0
2018-Jun-02 13:58N 43°33' W 005°41'0 0.0
2018-Jun-02 13:28N 43°33' W 005°41'0 0.0
2018-Jun-02 12:58N 43°33' W 005°41'0 0.0
2018-Jun-02 12:28N 43°33' W 005°41'0 0.0
2018-Jun-02 11:46N 43°33' W 005°41'0 0.0
2018-Jun-02 11:28N 43°33' W 005°41'0 0.0
2018-Jun-02 09:04N 43°33' W 005°41'0 0.0
2018-Jun-02 08:46N 43°33' W 005°41'0 0.0
2018-Jun-02 08:28N 43°33' W 005°41'0 0.0
2018-Jun-02 07:52N 43°33' W 005°41'0 0.0
2018-Jun-02 07:28N 43°33' W 005°41'0 0.0
2018-Jun-02 06:52N 43°33' W 005°41'0 0.0
2018-Jun-02 06:28N 43°33' W 005°41'0 0.0
2018-Jun-02 05:52N 43°33' W 005°41'0 0.0
2018-Jun-02 05:22N 43°33' W 005°41'0 0.0
2018-Jun-02 04:52N 43°33' W 005°41'0 0.0
2018-Jun-02 04:28N 43°33' W 005°41'0 0.0
2018-Jun-02 03:46N 43°33' W 005°41'0 0.0
2018-Jun-02 03:04N 43°33' W 005°41'0 0.0
2018-Jun-02 02:58N 43°33' W 005°41'0 0.0
2018-Jun-02 02:28N 43°33' W 005°41'0 0.0
2018-Jun-02 01:58N 43°33' W 005°41'0 0.0
2018-Jun-02 00:52N 43°33' W 005°41'0 0.0
2018-Jun-02 00:22N 43°33' W 005°41'0 0.0
2018-Jun-01 23:45N 43°33' W 005°41'1 1.4
2018-Jun-01 23:15N 43°34' W 005°41'5 6.9
2018-Jun-01 22:35N 43°38' W 005°43'  
2018-May-30 15:47N 49°49' W 003°21'1615.5
2018-May-30 14:45N 49°57' W 002°59'416.6
2018-May-30 14:31N 49°58' W 002°53'3616.8
2018-May-30 12:23N 50°08' W 002°00'715.6
2018-May-30 11:57N 50°10' W 001°50'714.7
2018-May-30 11:29N 50°12' W 001°39'713.8
2018-May-30 10:59N 50°13' W 001°29'4211.8
2018-May-30 07:25N 50°24' W 000°25'2813.7
2018-May-30 05:21N 50°32' E 000°17'515.1
2018-May-30 05:00N 50°34' E 000°25'714.9
2018-May-30 04:30N 50°36' E 000°37'815.1
2018-May-30 04:00N 50°40' E 000°47'714.7
2018-May-30 03:30N 50°44' E 000°56'2113.2
2018-May-30 01:53N 50°58' E 001°22'511.6
2018-May-30 01:30N 51°01' E 001°27'611.0
2018-May-30 00:59N 51°05' E 001°33'510.5
2018-May-30 00:30N 51°08' E 001°39'611.0
2018-May-30 00:00N 51°12' E 001°45'611.8
2018-May-29 23:30N 51°17' E 001°51'612.9
2018-May-29 23:00N 51°23' E 001°56'713.8
2018-May-29 22:30N 51°29' E 002°01'714.7
2018-May-29 22:00N 51°34' E 002°09'815.1
2018-May-29 21:29N 51°40' E 002°18'815.7
2018-May-29 21:00N 51°45' E 002°26'3113.3
2018-May-29 18:38N 52°03' E 003°09'211.6
2018-May-29 18:26N 52°03' E 003°12'511.2
2018-May-29 18:00N 52°03' E 003°21'510.6
2018-May-29 17:30N 52°03' E 003°29'510.2
2018-May-29 17:00N 52°04' E 003°37'510.1
2018-May-29 16:30N 52°04' E 003°46'510.0
2018-May-29 16:00N 52°03' E 003°53'4 8.1
2018-May-29 15:30N 52°01' E 003°59'5 9.3
2018-May-29 15:00N 51°59' E 004°06'4 7.7
2018-May-29 14:30N 51°57' E 004°11'3 6.9
2018-May-29 14:00N 51°55' E 004°16'3 7.0
2018-May-29 13:30N 51°54' E 004°21'1 1.8
2018-May-29 12:58N 51°54' E 004°23'0 0.0
2018-May-29 12:28N 51°54' E 004°23'0 0.0
2018-May-29 11:58N 51°54' E 004°23'0 0.0
2018-May-29 11:28N 51°54' E 004°23'0 0.0
2018-May-29 10:58N 51°54' E 004°23'0 0.0
2018-May-29 10:28N 51°54' E 004°23'0 0.0
2018-May-29 09:58N 51°54' E 004°23'0 0.0
2018-May-29 09:28N 51°54' E 004°23'0 0.0
2018-May-29 08:58N 51°54' E 004°23'0 0.0
2018-May-29 08:28N 51°54' E 004°23'0 0.0
2018-May-29 07:58N 51°54' E 004°23'0 0.0
2018-May-29 07:28N 51°54' E 004°23'0 0.0
2018-May-29 06:58N 51°54' E 004°23'0 0.0
2018-May-29 06:28N 51°54' E 004°23'0 0.0
2018-May-29 05:58N 51°54' E 004°23'0 0.0
2018-May-29 05:28N 51°54' E 004°23'0 0.0
2018-May-29 04:58N 51°54' E 004°23'0 0.0
2018-May-29 04:28N 51°54' E 004°23'0 0.0
2018-May-29 03:58N 51°54' E 004°23'0 0.0
2018-May-29 03:28N 51°54' E 004°23'0 0.0
2018-May-29 02:58N 51°54' E 004°23'0 0.0
2018-May-29 02:28N 51°54' E 004°23'0 0.0
2018-May-29 01:58N 51°54' E 004°23'0 0.0
2018-May-29 01:28N 51°54' E 004°23'0 0.0
2018-May-29 00:58N 51°54' E 004°23'0 0.0
2018-May-29 00:28N 51°54' E 004°23'0 0.0
2018-May-28 23:58N 51°54' E 004°23'0 0.0
2018-May-28 23:28N 51°54' E 004°23'0 0.0
2018-May-28 22:58N 51°54' E 004°23'  
Track history (hours):
 
Tides and Currents Weather Stations Pressure Air Temp Water Temp Dewpoint Dewpoint Depression Visibility Wind Speed Wind Dir Waves Ship Positions

BBC Florida

Last reported at 2018-Jun-07 22:30 UTC. Time now 2018-Jun-21 11:51 UTC.
Position N 38°14' W 032°41'.
Warning: this ship's position is 13 days out of date.

Length 138 m; draft 7.7 m.

Type: Cargo ship. MMSI: 305458000.

Date/timePositionNaut miles runAvg speedWind from/ knotsBaromVisibWave heightAir tempDewpointWater temp
2018-Jun-07 22:30N 38°14' W 032°41'1013.4
2018-Jun-07 21:47N 38°17' W 032°29'1013.6
2018-Jun-07 21:05N 38°19' W 032°17'113.4
2018-Jun-07 20:59N 38°20' W 032°16'1813.2
2018-Jun-07 19:36N 38°26' W 031°54'913.1
2018-Jun-07 18:53N 38°29' W 031°42'512.6
2018-Jun-07 18:29N 38°30' W 031°36'712.9
2018-Jun-07 17:59N 38°32' W 031°28'912.8
2018-Jun-07 17:18N 38°35' W 031°18'612.6
2018-Jun-07 16:51N 38°37' W 031°11'412.7
2018-Jun-07 16:30N 38°38' W 031°06'1913.2
2018-Jun-07 15:06N 38°44' W 030°43'813.5
2018-Jun-07 14:29N 38°47' W 030°33'713.5
2018-Jun-07 13:59N 38°49' W 030°25'713.6
2018-Jun-07 13:29N 38°51' W 030°16'613.3
2018-Jun-07 13:00N 38°52' W 030°08'713.5
2018-Jun-07 12:30N 38°54' W 029°60'713.1
2018-Jun-07 12:00N 38°56' W 029°52'713.2
2018-Jun-07 11:30N 38°57' W 029°44'713.1
2018-Jun-07 11:00N 38°59' W 029°35'713.1
2018-Jun-07 10:30N 39°00' W 029°27'612.8
2018-Jun-07 10:00N 39°02' W 029°19'612.7
2018-Jun-07 09:30N 39°04' W 029°11'612.4
2018-Jun-07 09:00N 39°06' W 029°04'612.1
2018-Jun-07 08:30N 39°07' W 028°56'612.3
2018-Jun-07 08:00N 39°09' W 028°49'612.1
2018-Jun-07 07:30N 39°10' W 028°41'612.2
2018-Jun-07 07:00N 39°12' W 028°33'612.2
2018-Jun-07 06:30N 39°14' W 028°26'612.0
2018-Jun-07 06:00N 39°15' W 028°18'611.9
2018-Jun-07 05:30N 39°17' W 028°11'611.8
2018-Jun-07 05:00N 39°19' W 028°04'611.9
2018-Jun-07 04:30N 39°21' W 027°57'611.7
2018-Jun-07 04:00N 39°24' W 027°50'611.9
2018-Jun-07 03:31N 39°26' W 027°43'611.9
2018-Jun-07 02:58N 39°27' W 027°35'  
2018-Jun-03 19:56N 43°46' W 006°02'613.3
2018-Jun-03 19:28N 43°44' W 005°54'613.5
2018-Jun-03 19:00N 43°41' W 005°46'612.9
2018-Jun-03 18:30N 43°36' W 005°40'3 6.2
2018-Jun-03 18:01N 43°33' W 005°41'0 0.0
2018-Jun-03 17:28N 43°33' W 005°41'0 0.0
2018-Jun-03 13:04N 43°33' W 005°41'0 0.0
2018-Jun-03 12:46N 43°33' W 005°41'0 0.0
2018-Jun-03 12:28N 43°33' W 005°41'0 0.0
2018-Jun-03 11:58N 43°33' W 005°41'0 0.0
2018-Jun-03 11:10N 43°33' W 005°41'0 0.0
2018-Jun-03 10:46N 43°33' W 005°41'0 0.0
2018-Jun-03 10:28N 43°33' W 005°41'0 0.0
2018-Jun-03 09:58N 43°33' W 005°41'0 0.0
2018-Jun-03 09:22N 43°33' W 005°41'0 0.0
2018-Jun-03 08:40N 43°33' W 005°41'0 0.0
2018-Jun-03 08:22N 43°33' W 005°41'0 0.0
2018-Jun-03 07:46N 43°33' W 005°41'0 0.0
2018-Jun-03 07:10N 43°33' W 005°41'0 0.0
2018-Jun-03 06:52N 43°33' W 005°41'0 0.0
2018-Jun-03 06:28N 43°33' W 005°41'0 0.0
2018-Jun-03 05:52N 43°33' W 005°41'0 0.0
2018-Jun-03 05:28N 43°33' W 005°41'0 0.0
2018-Jun-03 04:40N 43°33' W 005°41'0 0.0
2018-Jun-03 04:28N 43°33' W 005°41'0 0.0
2018-Jun-03 03:58N 43°33' W 005°41'0 0.0
2018-Jun-03 03:22N 43°33' W 005°41'0 0.0
2018-Jun-03 02:52N 43°33' W 005°41'0 0.0
2018-Jun-03 02:22N 43°33' W 005°41'0 0.0
2018-Jun-03 01:58N 43°33' W 005°41'0 0.0
2018-Jun-03 01:22N 43°33' W 005°41'0 0.0
2018-Jun-03 00:58N 43°33' W 005°41'0 0.0
2018-Jun-02 20:10N 43°33' W 005°41'0 0.0
2018-Jun-02 19:46N 43°33' W 005°41'0 0.0
2018-Jun-02 19:28N 43°33' W 005°41'0 0.0
2018-Jun-02 18:58N 43°33' W 005°41'0 0.0
2018-Jun-02 17:40N 43°33' W 005°41'0 0.0
2018-Jun-02 15:10N 43°33' W 005°41'0 0.0
2018-Jun-02 13:58N 43°33' W 005°41'0 0.0
2018-Jun-02 13:28N 43°33' W 005°41'0 0.0
2018-Jun-02 12:58N 43°33' W 005°41'0 0.0
2018-Jun-02 12:28N 43°33' W 005°41'0 0.0
2018-Jun-02 11:46N 43°33' W 005°41'0 0.0
2018-Jun-02 11:28N 43°33' W 005°41'0 0.0
2018-Jun-02 09:04N 43°33' W 005°41'0 0.0
2018-Jun-02 08:46N 43°33' W 005°41'0 0.0
2018-Jun-02 08:28N 43°33' W 005°41'0 0.0
2018-Jun-02 07:52N 43°33' W 005°41'0 0.0
2018-Jun-02 07:28N 43°33' W 005°41'0 0.0
2018-Jun-02 06:52N 43°33' W 005°41'0 0.0
2018-Jun-02 06:28N 43°33' W 005°41'0 0.0
2018-Jun-02 05:52N 43°33' W 005°41'0 0.0
2018-Jun-02 05:22N 43°33' W 005°41'0 0.0
2018-Jun-02 04:52N 43°33' W 005°41'0 0.0
2018-Jun-02 04:28N 43°33' W 005°41'0 0.0
2018-Jun-02 03:46N 43°33' W 005°41'0 0.0
2018-Jun-02 03:04N 43°33' W 005°41'0 0.0
2018-Jun-02 02:58N 43°33' W 005°41'0 0.0
2018-Jun-02 02:28N 43°33' W 005°41'0 0.0
2018-Jun-02 01:58N 43°33' W 005°41'0 0.0
2018-Jun-02 00:52N 43°33' W 005°41'0 0.0
2018-Jun-02 00:22N 43°33' W 005°41'0 0.0
2018-Jun-01 23:45N 43°33' W 005°41'1 1.4
2018-Jun-01 23:15N 43°34' W 005°41'5 6.9
2018-Jun-01 22:35N 43°38' W 005°43'  
2018-May-30 15:47N 49°49' W 003°21'1615.5
2018-May-30 14:45N 49°57' W 002°59'416.6
2018-May-30 14:31N 49°58' W 002°53'3616.8
2018-May-30 12:23N 50°08' W 002°00'715.6
2018-May-30 11:57N 50°10' W 001°50'714.7
2018-May-30 11:29N 50°12' W 001°39'713.8
2018-May-30 10:59N 50°13' W 001°29'4211.8
2018-May-30 07:25N 50°24' W 000°25'2813.7
2018-May-30 05:21N 50°32' E 000°17'515.1
2018-May-30 05:00N 50°34' E 000°25'714.9
2018-May-30 04:30N 50°36' E 000°37'815.1
2018-May-30 04:00N 50°40' E 000°47'714.7
2018-May-30 03:30N 50°44' E 000°56'2113.2
2018-May-30 01:53N 50°58' E 001°22'511.6
2018-May-30 01:30N 51°01' E 001°27'611.0
2018-May-30 00:59N 51°05' E 001°33'510.5
2018-May-30 00:30N 51°08' E 001°39'611.0
2018-May-30 00:00N 51°12' E 001°45'611.8
2018-May-29 23:30N 51°17' E 001°51'612.9
2018-May-29 23:00N 51°23' E 001°56'713.8
2018-May-29 22:30N 51°29' E 002°01'714.7
2018-May-29 22:00N 51°34' E 002°09'815.1
2018-May-29 21:29N 51°40' E 002°18'815.7
2018-May-29 21:00N 51°45' E 002°26'3113.3
2018-May-29 18:38N 52°03' E 003°09'211.6
2018-May-29 18:26N 52°03' E 003°12'511.2
2018-May-29 18:00N 52°03' E 003°21'510.6
2018-May-29 17:30N 52°03' E 003°29'510.2
2018-May-29 17:00N 52°04' E 003°37'510.1
2018-May-29 16:30N 52°04' E 003°46'510.0
2018-May-29 16:00N 52°03' E 003°53'4 8.1
2018-May-29 15:30N 52°01' E 003°59'5 9.3
2018-May-29 15:00N 51°59' E 004°06'4 7.7
2018-May-29 14:30N 51°57' E 004°11'3 6.9
2018-May-29 14:00N 51°55' E 004°16'3 7.0
2018-May-29 13:30N 51°54' E 004°21'1 1.8
2018-May-29 12:58N 51°54' E 004°23'0 0.0
2018-May-29 12:28N 51°54' E 004°23'0 0.0
2018-May-29 11:58N 51°54' E 004°23'0 0.0
2018-May-29 11:28N 51°54' E 004°23'0 0.0
2018-May-29 10:58N 51°54' E 004°23'0 0.0
2018-May-29 10:28N 51°54' E 004°23'0 0.0
2018-May-29 09:58N 51°54' E 004°23'0 0.0
2018-May-29 09:28N 51°54' E 004°23'0 0.0
2018-May-29 08:58N 51°54' E 004°23'0 0.0
2018-May-29 08:28N 51°54' E 004°23'0 0.0
2018-May-29 07:58N 51°54' E 004°23'0 0.0
2018-May-29 07:28N 51°54' E 004°23'0 0.0
2018-May-29 06:58N 51°54' E 004°23'0 0.0
2018-May-29 06:28N 51°54' E 004°23'0 0.0
2018-May-29 05:58N 51°54' E 004°23'0 0.0
2018-May-29 05:28N 51°54' E 004°23'0 0.0
2018-May-29 04:58N 51°54' E 004°23'0 0.0
2018-May-29 04:28N 51°54' E 004°23'0 0.0
2018-May-29 03:58N 51°54' E 004°23'0 0.0
2018-May-29 03:28N 51°54' E 004°23'0 0.0
2018-May-29 02:58N 51°54' E 004°23'0 0.0
2018-May-29 02:28N 51°54' E 004°23'0 0.0
2018-May-29 01:58N 51°54' E 004°23'0 0.0
2018-May-29 01:28N 51°54' E 004°23'0 0.0
2018-May-29 00:58N 51°54' E 004°23'0 0.0
2018-May-29 00:28N 51°54' E 004°23'0 0.0
2018-May-28 23:58N 51°54' E 004°23'0 0.0
2018-May-28 23:28N 51°54' E 004°23'0 0.0
2018-May-28 22:58N 51°54' E 004°23'  

Dump ship's entire track history